createdAt,value
2019-05-03T00:01:07.604Z,99343.75
2019-05-03T00:03:37.200Z,99344.61
2019-05-03T00:06:06.975Z,99347.81
2019-05-03T00:08:36.637Z,99354.84
2019-05-03T00:11:06.303Z,99355.69
2019-05-03T00:13:35.919Z,99359.25
2019-05-03T00:16:07.256Z,99360.13
2019-05-03T00:18:36.853Z,99363.69
2019-05-03T00:21:06.526Z,99365.92
2019-05-03T00:23:36.121Z,99370.09
2019-05-03T00:26:06.012Z,99375.61
2019-05-03T00:28:35.618Z,99368.18
2019-05-03T00:31:05.406Z,99373.59
2019-05-03T00:33:36.773Z,99370.89
2019-05-03T00:36:11.659Z,99379.91
2019-05-03T00:38:41.943Z,99383.73
2019-05-03T00:41:12.226Z,99379.44
2019-05-03T00:43:42.360Z,99389.75
2019-05-03T00:46:12.613Z,99389.63
2019-05-03T00:48:43.051Z,99389.76
2019-05-03T00:51:12.779Z,99391.28
2019-05-03T00:53:42.536Z,99389.63
2019-05-03T00:56:12.355Z,99401.05
2019-05-03T00:58:49.746Z,99397.53
2019-05-03T01:01:19.648Z,99398.95
2019-05-03T01:03:49.244Z,99402.62
2019-05-03T01:06:18.863Z,99404.89
2019-05-03T01:08:48.460Z,99401.47
2019-05-03T01:11:18.104Z,99404.67
2019-05-03T01:13:47.705Z,99405.27
2019-05-03T01:16:18.949Z,99406.92
2019-05-03T01:18:48.548Z,99423.59
2019-05-03T01:21:18.173Z,99416.44
2019-05-03T01:23:47.771Z,99422.41
2019-05-03T01:26:17.373Z,99425.31
2019-05-03T01:28:46.980Z,99417.25
2019-05-03T01:31:16.581Z,99426.02
2019-05-03T01:33:46.196Z,99418.12
2019-05-03T01:36:15.789Z,99424.45
2019-05-03T01:38:45.399Z,99423.42
2019-05-03T01:41:14.999Z,99423.13
2019-05-03T01:43:44.608Z,99415.67
2019-05-03T01:46:14.231Z,99414.63
2019-05-03T01:48:48.270Z,99423.53
2019-05-03T01:51:25.358Z,99414.73
2019-05-03T01:53:54.962Z,99424.78
2019-05-03T01:56:24.913Z,99425.36
2019-05-03T01:58:54.517Z,99424.36
2019-05-03T02:01:25.765Z,99430.12
2019-05-03T02:03:55.166Z,99428.55
2019-05-03T02:06:24.755Z,99439.08
2019-05-03T02:08:54.362Z,99437.73
2019-05-03T02:11:24.046Z,99441.51
2019-05-03T02:13:53.872Z,99445.95
2019-05-03T02:16:23.470Z,99448.98
2019-05-03T02:18:53.080Z,99448.11
2019-05-03T02:21:22.677Z,99451.10
2019-05-03T02:23:52.289Z,99453.31
2019-05-03T02:26:22.723Z,99456.59
2019-05-03T02:28:52.822Z,99464.88
2019-05-03T02:31:23.385Z,99464.67
2019-05-03T02:33:53.875Z,99463.62
2019-05-03T02:36:23.566Z,99459.86
2019-05-03T02:38:53.790Z,99465.31
2019-05-03T02:41:23.979Z,99469.88
2019-05-03T02:43:56.185Z,99468.84
2019-05-03T02:46:45.262Z,99471.86
2019-05-03T02:49:18.546Z,99471.95
2019-05-03T02:51:48.134Z,99474.76
2019-05-03T02:54:17.754Z,99472.20
2019-05-03T02:56:47.362Z,99484.66
2019-05-03T02:59:16.955Z,99490.08
2019-05-03T03:01:47.517Z,99489.02
2019-05-03T03:04:18.186Z,99480.41
2019-05-03T03:06:49.444Z,99486.13
2019-05-03T03:09:25.889Z,99485.36
2019-05-03T03:11:57.883Z,99487.53
2019-05-03T03:14:32.208Z,99486.22
2019-05-03T03:17:06.667Z,99484.05
2019-05-03T03:19:39.671Z,99479.25
2019-05-03T03:22:11.440Z,99477.66
2019-05-03T03:24:45.936Z,99479.58
2019-05-03T03:27:20.244Z,99482.55
2019-05-03T03:30:08.037Z,99479.89
2019-05-03T03:32:41.198Z,99478.55
2019-05-03T03:35:21.362Z,99490.91
2019-05-03T03:37:48.447Z,99487.45
2019-05-03T03:40:19.645Z,99496.38
2019-05-03T03:42:51.071Z,99497.69
2019-05-03T03:45:20.836Z,99497.11
2019-05-03T03:47:56.207Z,99500.59
2019-05-03T03:50:27.360Z,99503.84
2019-05-03T03:53:00.923Z,99509.76
2019-05-03T03:55:35.426Z,99506.33
2019-05-03T03:58:06.450Z,99510.62
2019-05-03T04:00:36.569Z,99513.02
2019-05-03T04:03:06.916Z,99514.05
2019-05-03T04:05:36.520Z,99528.03
2019-05-03T04:08:06.123Z,99531.50
2019-05-03T04:10:35.881Z,99529.13
2019-05-03T04:13:07.524Z,99540.16
2019-05-03T04:15:56.173Z,99536.93
2019-05-03T04:18:37.476Z,99547.17
2019-05-03T04:21:07.545Z,99546.07
2019-05-03T04:23:38.077Z,99547.98
2019-05-03T04:26:08.224Z,99555.00
2019-05-03T04:28:39.126Z,99566.83
2019-05-03T04:31:08.744Z,99575.97
2019-05-03T04:33:39.099Z,99584.86
2019-05-03T04:36:08.712Z,99594.42
2019-05-03T04:38:38.313Z,99602.05
2019-05-03T04:41:07.926Z,99604.50
2019-05-03T04:43:38.001Z,99608.56
2019-05-03T04:46:12.030Z,99613.44
2019-05-03T04:48:41.635Z,99615.31
2019-05-03T04:51:11.253Z,99616.62
2019-05-03T04:53:45.330Z,99614.78
2019-05-03T04:56:16.724Z,99622.30
2019-05-03T04:58:45.841Z,99626.02
2019-05-03T05:01:17.589Z,99628.41
2019-05-03T05:03:47.185Z,99639.17
2019-05-03T05:06:16.769Z,99639.92
2019-05-03T05:08:46.358Z,99643.09
2019-05-03T05:11:16.028Z,99639.33
2019-05-03T05:13:48.474Z,99641.43
2019-05-03T05:16:18.077Z,99645.41
2019-05-03T05:18:49.324Z,99644.81
2019-05-03T05:21:26.429Z,99649.09
2019-05-03T05:24:05.567Z,99649.19
2019-05-03T05:26:51.997Z,99651.70
2019-05-03T05:29:26.031Z,99661.98
2019-05-03T05:31:55.800Z,99661.52
2019-05-03T05:34:25.483Z,99665.27
2019-05-03T05:36:55.428Z,99670.63
2019-05-03T05:39:25.056Z,99674.92
2019-05-03T05:41:55.422Z,99682.41
2019-05-03T05:44:25.144Z,99682.09
2019-05-03T05:47:15.025Z,99683.44
2019-05-03T05:49:46.302Z,99681.28
2019-05-03T05:52:15.905Z,99676.74
2019-05-03T05:54:47.131Z,99676.45
2019-05-03T05:57:22.197Z,99676.96
2019-05-03T05:59:54.483Z,99679.03
2019-05-03T06:02:25.393Z,99682.25
2019-05-03T06:04:55.098Z,99682.75
2019-05-03T06:07:44.319Z,99682.44
2019-05-03T06:10:16.714Z,99688.08
2019-05-03T06:12:57.192Z,99694.25
2019-05-03T06:15:34.374Z,99693.37
2019-05-03T06:18:25.054Z,99703.02
2019-05-03T06:21:14.826Z,99705.39
2019-05-03T06:23:48.761Z,99698.55
2019-05-03T06:26:36.267Z,99708.69
2019-05-03T06:29:08.819Z,99715.95
2019-05-03T06:31:41.117Z,99715.95
2019-05-03T06:34:10.701Z,99715.91
2019-05-03T06:36:41.864Z,99715.88
2019-05-03T06:39:11.460Z,99716.12
2019-05-03T06:41:41.055Z,99715.02
2019-05-03T06:44:10.670Z,99712.25
2019-05-03T06:46:45.464Z,99728.83
2019-05-03T06:49:15.985Z,99730.58
2019-05-03T06:51:49.706Z,99729.11
2019-05-03T06:54:20.712Z,99725.84
2019-05-03T06:56:48.324Z,99735.56
2019-05-03T06:59:19.572Z,99720.63
2019-05-03T07:01:56.943Z,99716.64
2019-05-03T07:04:28.211Z,99718.03
2019-05-03T07:07:17.850Z,99720.36
2019-05-03T07:10:05.034Z,99722.91
2019-05-03T07:12:54.558Z,99727.72
2019-05-03T07:15:25.170Z,99729.56
2019-05-03T07:17:55.615Z,99724.49
2019-05-03T07:20:25.778Z,99725.35
2019-05-03T07:22:56.482Z,99734.92
2019-05-03T07:25:26.072Z,99720.34
2019-05-03T07:27:55.849Z,99738.28
2019-05-03T07:30:25.631Z,99732.89
2019-05-03T07:32:56.880Z,99732.59
2019-05-03T07:35:26.491Z,99736.29
2019-05-03T07:37:56.082Z,99741.33
2019-05-03T07:40:25.692Z,99742.82
2019-05-03T07:42:55.716Z,99740.36
2019-05-03T07:45:25.670Z,99750.81
2019-05-03T07:47:56.068Z,99754.20
2019-05-03T07:50:26.130Z,99749.91
2019-05-03T07:52:55.980Z,99753.70
2019-05-03T07:55:45.502Z,99752.64
2019-05-03T07:58:16.207Z,99758.33
2019-05-03T08:00:45.885Z,99753.36
2019-05-03T08:03:15.631Z,99760.59
2019-05-03T08:05:45.829Z,99756.02
2019-05-03T08:08:15.437Z,99760.04
2019-05-03T08:10:45.221Z,99754.63
2019-05-03T08:13:15.279Z,99751.61
2019-05-03T08:15:45.354Z,99747.44
2019-05-03T08:18:15.462Z,99750.79
2019-05-03T08:20:45.664Z,99752.86
2019-05-03T08:23:26.811Z,99755.52
2019-05-03T08:25:46.613Z,99754.23
2019-05-03T08:28:16.209Z,99761.31
2019-05-03T08:30:50.104Z,99756.98
2019-05-03T08:33:37.269Z,99762.47
2019-05-03T08:36:07.113Z,99767.84
2019-05-03T08:38:36.720Z,99752.56
2019-05-03T08:41:07.966Z,99755.26
2019-05-03T08:43:37.840Z,99762.40
2019-05-03T08:46:07.468Z,99761.75
2019-05-03T08:48:37.059Z,99761.16
2019-05-03T08:51:06.671Z,99757.94
2019-05-03T08:53:36.278Z,99754.42
2019-05-03T08:56:05.882Z,99757.05
2019-05-03T08:58:35.473Z,99752.02
2019-05-03T09:01:06.193Z,99746.42
2019-05-03T09:03:38.317Z,99751.50
2019-05-03T09:06:07.164Z,99750.15
2019-05-03T09:08:36.742Z,99750.35
2019-05-03T09:11:10.701Z,99751.02
2019-05-03T09:13:48.653Z,99748.30
2019-05-03T09:16:18.358Z,99758.75
2019-05-03T09:18:48.059Z,99746.05
2019-05-03T09:21:17.739Z,99742.28
2019-05-03T09:23:47.359Z,99749.21
2019-05-03T09:26:16.952Z,99749.97
2019-05-03T09:28:46.559Z,99754.21
2019-05-03T09:31:16.177Z,99749.00
2019-05-03T09:33:45.767Z,99747.98
2019-05-03T09:36:15.365Z,99750.44
2019-05-03T09:38:45.849Z,99745.79
2019-05-03T09:41:15.552Z,99738.64
2019-05-03T09:43:45.300Z,99740.48
2019-05-03T09:46:15.134Z,99742.97
2019-05-03T09:48:45.587Z,99739.70
2019-05-03T09:51:15.418Z,99750.25
2019-05-03T09:53:46.648Z,99738.88
2019-05-03T09:56:16.253Z,99741.19
2019-05-03T09:58:46.228Z,99753.58
2019-05-03T10:01:15.865Z,99746.16
2019-05-03T10:03:45.443Z,99751.96
2019-05-03T10:06:17.444Z,99754.00
2019-05-03T10:08:46.399Z,99747.27
2019-05-03T10:11:16.034Z,99745.11
2019-05-03T10:13:48.223Z,99742.33
2019-05-03T10:16:16.964Z,99732.27
2019-05-03T10:18:46.568Z,99736.52
2019-05-03T10:21:16.366Z,99728.98
2019-05-03T10:23:45.966Z,99727.53
2019-05-03T10:26:15.583Z,99736.36
2019-05-03T10:28:45.345Z,99733.75
2019-05-03T10:31:14.970Z,99739.91
2019-05-03T10:33:46.216Z,99734.13
2019-05-03T10:36:15.833Z,99733.75
2019-05-03T10:38:46.311Z,99732.20
2019-05-03T10:41:16.380Z,99737.91
2019-05-03T10:43:45.993Z,99736.83
2019-05-03T10:46:15.938Z,99738.52
2019-05-03T10:48:45.874Z,99739.89
2019-05-03T10:51:15.957Z,99736.66
2019-05-03T10:53:47.485Z,99737.98
2019-05-03T10:56:24.489Z,99737.05
2019-05-03T10:58:55.073Z,99730.56
2019-05-03T11:01:31.903Z,99731.94
2019-05-03T11:04:01.533Z,99728.98
2019-05-03T11:06:31.160Z,99731.80
2019-05-03T11:09:02.434Z,99729.43
2019-05-03T11:11:32.014Z,99718.88
2019-05-03T11:14:01.655Z,99717.91
2019-05-03T11:16:31.259Z,99729.88
2019-05-03T11:19:00.878Z,99723.12
2019-05-03T11:21:31.136Z,99724.10
2019-05-03T11:24:00.858Z,99727.67
2019-05-03T11:26:30.594Z,99715.91
2019-05-03T11:29:00.651Z,99715.90
2019-05-03T11:31:46.917Z,99717.05
2019-05-03T11:34:18.786Z,99716.64
2019-05-03T11:36:59.874Z,99722.04
2019-05-03T11:39:29.494Z,99727.44
2019-05-03T11:42:00.158Z,99717.45
2019-05-03T11:44:38.392Z,99719.28
2019-05-03T11:47:09.703Z,99717.47
2019-05-03T11:49:39.327Z,99720.06
2019-05-03T11:52:09.098Z,99711.30
2019-05-03T11:54:38.718Z,99721.08
2019-05-03T11:57:12.670Z,99718.26
2019-05-03T11:59:42.273Z,99718.40
2019-05-03T12:02:26.514Z,99717.18
2019-05-03T12:04:56.718Z,99721.02
2019-05-03T12:07:38.917Z,99719.19
2019-05-03T12:10:15.134Z,99717.31
2019-05-03T12:12:55.371Z,99719.87
2019-05-03T12:15:25.169Z,99713.59
2019-05-03T12:17:59.060Z,99711.48
2019-05-03T12:20:29.238Z,99716.27
2019-05-03T12:22:59.575Z,99715.87
2019-05-03T12:25:30.313Z,99708.02
2019-05-03T12:28:00.325Z,99713.82
2019-05-03T12:30:29.978Z,99715.38
2019-05-03T12:32:59.579Z,99709.64
2019-05-03T12:35:29.189Z,99705.98
2019-05-03T12:37:58.779Z,99706.66
2019-05-03T12:40:28.392Z,99712.67
2019-05-03T12:42:57.986Z,99708.55
2019-05-03T12:45:27.613Z,99713.45
2019-05-03T12:47:57.220Z,99718.35
2019-05-03T12:50:26.837Z,99711.40
2019-05-03T12:52:56.448Z,99715.56
2019-05-03T12:55:26.059Z,99718.77
2019-05-03T12:57:55.854Z,99713.05
2019-05-03T13:00:39.334Z,99717.70
2019-05-03T13:03:26.736Z,99701.59
2019-05-03T13:05:56.491Z,99705.53
2019-05-03T13:08:39.960Z,99697.70
2019-05-03T13:11:09.720Z,99705.86
2019-05-03T13:13:39.380Z,99699.69
2019-05-03T13:16:10.726Z,99698.20
2019-05-03T13:18:40.329Z,99692.58
2019-05-03T13:21:09.942Z,99684.84
2019-05-03T13:23:39.523Z,99689.09
2019-05-03T13:26:09.113Z,99678.12
2019-05-03T13:28:38.712Z,99689.97
2019-05-03T13:31:08.302Z,99679.14
2019-05-03T13:33:37.895Z,99686.20
2019-05-03T13:36:07.610Z,99680.56
2019-05-03T13:38:37.212Z,99676.75
2019-05-03T13:41:06.883Z,99682.59
2019-05-03T13:43:36.437Z,99684.95
2019-05-03T13:46:06.699Z,99676.14
2019-05-03T13:48:45.374Z,99677.80
2019-05-03T13:51:07.683Z,99677.41
2019-05-03T13:53:37.264Z,99676.77
2019-05-03T13:56:07.047Z,99675.98
2019-05-03T13:58:36.821Z,99677.34
2019-05-03T14:01:06.506Z,99676.33
2019-05-03T14:03:36.578Z,99672.55
2019-05-03T14:06:08.335Z,99671.45
2019-05-03T14:08:37.558Z,99675.38
2019-05-03T14:11:07.152Z,99670.88
2019-05-03T14:13:36.762Z,99665.52
2019-05-03T14:16:06.866Z,99669.26
2019-05-03T14:18:36.757Z,99666.90
2019-05-03T14:21:24.457Z,99667.88
2019-05-03T14:24:12.838Z,99672.51
2019-05-03T14:26:44.803Z,99674.52
2019-05-03T14:29:15.031Z,99663.80
2019-05-03T14:31:45.414Z,99658.44
2019-05-03T14:34:17.520Z,99661.95
2019-05-03T14:36:46.608Z,99656.23
2019-05-03T14:39:16.201Z,99649.75
2019-05-03T14:41:46.891Z,99650.30
2019-05-03T14:44:18.009Z,99654.28
2019-05-03T14:46:47.877Z,99656.60
2019-05-03T14:49:17.493Z,99655.53
2019-05-03T14:51:47.087Z,99651.80
2019-05-03T14:54:16.870Z,99648.06
2019-05-03T14:56:48.407Z,99647.14
2019-05-03T14:59:35.507Z,99644.29
2019-05-03T15:02:10.624Z,99637.86
2019-05-03T15:04:40.287Z,99643.86
2019-05-03T15:07:09.894Z,99640.73
2019-05-03T15:09:39.806Z,99641.92
2019-05-03T15:12:09.414Z,99637.08
2019-05-03T15:14:39.049Z,99642.08
2019-05-03T15:17:08.675Z,99635.34
2019-05-03T15:19:38.278Z,99637.70
2019-05-03T15:22:07.882Z,99629.72
2019-05-03T15:24:37.531Z,99628.45
2019-05-03T15:27:07.099Z,99630.70
2019-05-03T15:29:37.185Z,99633.66
2019-05-03T15:32:06.798Z,99635.13
2019-05-03T15:34:36.423Z,99626.98
2019-05-03T15:37:06.300Z,99635.42
2019-05-03T15:39:36.185Z,99636.89
2019-05-03T15:42:05.841Z,99635.66
2019-05-03T15:44:44.911Z,99639.95
2019-05-03T15:47:31.019Z,99631.53
2019-05-03T15:50:00.624Z,99630.81
2019-05-03T15:52:30.260Z,99635.44
2019-05-03T15:54:59.848Z,99631.66
2019-05-03T15:57:29.485Z,99634.63
2019-05-03T15:59:59.061Z,99633.02
2019-05-03T16:02:28.667Z,99632.84
2019-05-03T16:04:58.806Z,99636.33
2019-05-03T16:07:28.464Z,99637.23
2019-05-03T16:09:58.069Z,99638.10
2019-05-03T16:12:27.776Z,99640.66
2019-05-03T16:14:57.397Z,99635.87
2019-05-03T16:17:27.000Z,99638.11
2019-05-03T16:19:56.592Z,99633.73
2019-05-03T16:22:26.282Z,99630.44
2019-05-03T16:24:55.883Z,99630.84
2019-05-03T16:27:27.901Z,99635.87
2019-05-03T16:29:57.494Z,99629.48
2019-05-03T16:32:27.108Z,99633.06
2019-05-03T16:34:56.703Z,99628.67
2019-05-03T16:37:26.297Z,99629.22
2019-05-03T16:39:57.800Z,99631.78
2019-05-03T16:42:27.226Z,99624.47
2019-05-03T16:44:56.824Z,99630.33
2019-05-03T16:47:26.429Z,99626.03
2019-05-03T16:49:56.044Z,99620.87
2019-05-03T16:52:25.794Z,99618.02
2019-05-03T16:54:55.432Z,99623.52
2019-05-03T16:57:25.046Z,99626.55
2019-05-03T16:59:55.089Z,99624.50
2019-05-03T17:02:24.737Z,99625.12
2019-05-03T17:04:55.972Z,99626.12
2019-05-03T17:07:27.233Z,99624.41
2019-05-03T17:10:01.069Z,99619.84
2019-05-03T17:12:32.308Z,99619.36
2019-05-03T17:15:02.098Z,99627.73
2019-05-03T17:17:31.684Z,99626.14
2019-05-03T17:20:01.286Z,99631.16
2019-05-03T17:22:30.890Z,99618.24
2019-05-03T17:25:00.546Z,99618.86
2019-05-03T17:27:30.150Z,99620.63
2019-05-03T17:29:59.768Z,99623.93
2019-05-03T17:32:29.376Z,99619.59
2019-05-03T17:34:58.990Z,99620.73
2019-05-03T17:37:28.597Z,99618.16
2019-05-03T17:40:16.053Z,99608.48
2019-05-03T17:42:59.270Z,99611.64
2019-05-03T17:45:38.062Z,99613.44
2019-05-03T17:48:07.803Z,99613.56
2019-05-03T17:50:37.433Z,99612.13
2019-05-03T17:53:26.994Z,99607.05
2019-05-03T17:56:00.922Z,99606.80
2019-05-03T17:58:41.025Z,99619.87
2019-05-03T18:01:18.038Z,99608.45
2019-05-03T18:03:49.291Z,99609.23
2019-05-03T18:06:26.609Z,99615.80
2019-05-03T18:09:09.918Z,99613.34
2019-05-03T18:11:50.347Z,99617.30
2019-05-03T18:14:19.942Z,99617.98
2019-05-03T18:16:49.535Z,99622.63
2019-05-03T18:19:19.156Z,99625.62
2019-05-03T18:21:48.760Z,99626.16
2019-05-03T18:24:18.384Z,99620.33
2019-05-03T18:26:47.995Z,99623.03
2019-05-03T18:29:17.613Z,99619.37
2019-05-03T18:31:47.221Z,99627.00
2019-05-03T18:34:19.897Z,99623.24
2019-05-03T18:36:48.182Z,99625.13
2019-05-03T18:39:17.788Z,99621.73
2019-05-03T18:41:47.402Z,99622.34
2019-05-03T18:44:18.659Z,99625.91
2019-05-03T18:46:49.906Z,99630.59
2019-05-03T18:49:19.503Z,99633.19
2019-05-03T18:51:49.129Z,99633.19
2019-05-03T18:54:18.717Z,99641.82
2019-05-03T18:56:48.340Z,99647.84
2019-05-03T18:59:17.928Z,99646.84
2019-05-03T19:01:47.556Z,99641.82
2019-05-03T19:04:31.296Z,99645.91
2019-05-03T19:07:03.778Z,99651.40
2019-05-03T19:09:34.894Z,99648.71
2019-05-03T19:12:22.474Z,99642.53
2019-05-03T19:14:52.067Z,99639.42
2019-05-03T19:17:24.871Z,99654.38
2019-05-03T19:19:58.181Z,99651.80
2019-05-03T19:22:27.798Z,99647.55
2019-05-03T19:24:57.446Z,99643.13
2019-05-03T19:27:27.056Z,99649.38
2019-05-03T19:29:56.660Z,99643.14
2019-05-03T19:32:28.382Z,99645.47
2019-05-03T19:34:57.580Z,99638.52
2019-05-03T19:37:27.553Z,99635.23
2019-05-03T19:39:57.156Z,99635.73
2019-05-03T19:42:27.315Z,99632.72
2019-05-03T19:44:57.206Z,99629.75
2019-05-03T19:47:26.798Z,99623.05
2019-05-03T19:49:56.397Z,99626.16
2019-05-03T19:52:27.643Z,99626.81
2019-05-03T19:54:57.234Z,99624.48
2019-05-03T19:57:28.476Z,99622.98
2019-05-03T19:59:58.065Z,99631.08
2019-05-03T20:02:34.995Z,99629.28
2019-05-03T20:05:15.234Z,99628.13
2019-05-03T20:08:05.037Z,99627.76
2019-05-03T20:10:35.120Z,99620.95
2019-05-03T20:13:05.089Z,99620.55
2019-05-03T20:15:34.686Z,99618.11
2019-05-03T20:18:04.883Z,99619.67
2019-05-03T20:20:34.560Z,99616.17
2019-05-03T20:23:05.252Z,99612.70
2019-05-03T20:25:35.253Z,99615.32
2019-05-03T20:28:05.243Z,99616.35
2019-05-03T20:30:35.217Z,99614.75
2019-05-03T20:33:04.837Z,99618.77
2019-05-03T20:35:35.631Z,99611.75
2019-05-03T20:38:05.435Z,99613.09
2019-05-03T20:40:35.204Z,99610.69
2019-05-03T20:43:09.465Z,99614.16
2019-05-03T20:45:41.638Z,99610.11
2019-05-03T20:48:14.528Z,99610.11
2019-05-03T20:50:44.753Z,99607.70
2019-05-03T20:53:14.412Z,99601.19
2019-05-03T20:55:45.133Z,99605.02
2019-05-03T20:58:14.861Z,99603.14
2019-05-03T21:00:45.135Z,99597.78
2019-05-03T21:03:15.305Z,99594.46
2019-05-03T21:05:45.029Z,99601.19
2019-05-03T21:08:14.907Z,99599.06
2019-05-03T21:10:45.208Z,99596.41
2019-05-03T21:13:14.820Z,99593.75
2019-05-03T21:15:46.126Z,99599.95
2019-05-03T21:18:20.492Z,99592.19
2019-05-03T21:20:51.737Z,99594.06
2019-05-03T21:23:24.914Z,99590.16
2019-05-03T21:26:12.341Z,99585.38
2019-05-03T21:28:36.715Z,99583.78
2019-05-03T21:31:07.097Z,99582.27
2019-05-03T21:33:36.796Z,99583.65
2019-05-03T21:36:06.560Z,99583.42
2019-05-03T21:38:37.751Z,99586.67
2019-05-03T21:41:07.446Z,99593.17
2019-05-03T21:43:37.705Z,99585.97
2019-05-03T21:46:09.037Z,99589.78
2019-05-03T21:48:55.343Z,99585.00
2019-05-03T21:51:25.137Z,99578.05
2019-05-03T21:53:54.780Z,99588.29
2019-05-03T21:56:24.965Z,99582.89
2019-05-03T21:58:55.288Z,99586.94
2019-05-03T22:01:25.935Z,99592.30
2019-05-03T22:03:55.808Z,99580.20
2019-05-03T22:06:25.408Z,99582.33
2019-05-03T22:08:55.517Z,99581.29
2019-05-03T22:11:25.380Z,99582.67
2019-05-03T22:13:57.344Z,99578.47
2019-05-03T22:16:45.177Z,99581.74
2019-05-03T22:19:19.052Z,99579.05
2019-05-03T22:21:47.785Z,99580.16
2019-05-03T22:24:19.009Z,99575.34
2019-05-03T22:26:58.871Z,99573.44
2019-05-03T22:29:28.501Z,99575.61
2019-05-03T22:31:58.143Z,99568.91
2019-05-03T22:34:27.731Z,99568.55
2019-05-03T22:36:57.396Z,99568.02
2019-05-03T22:39:27.015Z,99568.22
2019-05-03T22:41:58.287Z,99563.03
2019-05-03T22:44:27.903Z,99555.73
2019-05-03T22:46:59.656Z,99548.12
2019-05-03T22:49:29.270Z,99550.73
2019-05-03T22:51:58.943Z,99549.91
2019-05-03T22:54:28.649Z,99554.17
2019-05-03T22:56:58.264Z,99545.85
2019-05-03T22:59:27.918Z,99541.84
2019-05-03T23:01:57.498Z,99541.56
2019-05-03T23:04:27.161Z,99545.41
2019-05-03T23:06:56.792Z,99543.02
2019-05-03T23:09:28.096Z,99543.61
2019-05-03T23:11:57.772Z,99536.41
2019-05-03T23:14:27.400Z,99532.64
2019-05-03T23:16:57.077Z,99531.28
2019-05-03T23:19:26.847Z,99523.95
2019-05-03T23:21:58.059Z,99518.02
2019-05-03T23:24:27.648Z,99509.19
2019-05-03T23:26:57.252Z,99514.03
2019-05-03T23:29:26.842Z,99511.06
2019-05-03T23:31:56.430Z,99506.72
2019-05-03T23:34:26.021Z,99505.13
2019-05-03T23:36:55.625Z,99501.03
2019-05-03T23:39:25.230Z,99497.25
2019-05-03T23:41:55.707Z,99497.72
2019-05-03T23:44:25.603Z,99499.63
2019-05-03T23:46:56.842Z,99493.44
2019-05-03T23:49:26.434Z,99496.94
2019-05-03T23:51:57.711Z,99498.50
2019-05-03T23:54:27.303Z,99495.78
2019-05-03T23:56:56.986Z,99489.13
2019-05-03T23:59:26.589Z,99488.91
